Current Conditions
Mostly Cloudy
Conditions



Pressure
1023.03 (hPa) - 30.21 (inHG)
Visibility

9.7 (km) - 6.0 (miles)
Temperature
6  °C
Temperature
3  °C
Dewpoint
81  %
 Humidity
Wind Speed
16  km/h
9  kts
10  mph
4.5  m/s
Wind Direction
N
45°
E
90°
135°
S
180°
225°
W
270°
315°
 340°

North North
West
Airport Data
EHVK
Volkel Air Base
Metar :EHVK 202004Z AUTO 34009KT 300V020 9999 BKN023 BKN027 BKN031 06/03 Q1023 WHT
Sat 20th April 22:04 pm
Raw Metar Info
Raw METAR is the most common format in the world for the transmission of observational weather data. It is highly standardized through the International Civil Aviation Organization (ICAO), which allows it to be understood throughout most of the world.
API Info
Data Provided by
https://www.checkwx.com/weather/EHVK

Aviation Weather providing METAR, TAF, AIRMET, SIGMET and OUTLOOK Weather Reports
© Info
CSS/SVG/PHP scripts were developed by weather34.com for use in the weather34 template © 2015-2024

Guide Info provided by Metar-Wikipedia